createdAt,value
2019-04-11T06:37:32.536Z,73.43
2019-04-11T06:43:29.662Z,72.87
2019-04-11T06:49:30.737Z,69.36
2019-04-11T06:55:30.748Z,67.30
2019-04-11T07:01:30.082Z,65.75
2019-04-11T07:07:32.402Z,59.63
2019-04-11T07:13:30.502Z,56.73
2019-04-11T07:19:30.695Z,54.48
2019-04-11T07:25:30.982Z,53.04
2019-04-11T12:43:38.288Z,31.88
2019-04-11T12:49:38.301Z,31.69
2019-04-11T12:55:38.303Z,32.96
2019-04-11T13:01:38.572Z,32.67
2019-04-11T13:07:38.341Z,32.84
2019-04-11T13:13:38.308Z,34.92
2019-04-11T13:19:38.341Z,32.27
2019-04-11T13:25:38.321Z,32.07
2019-04-11T13:31:38.304Z,31.26
2019-04-11T13:37:38.327Z,32.44
2019-04-11T13:43:38.318Z,31.96
2019-04-11T13:49:38.329Z,30.66
2019-04-11T13:55:38.347Z,30.78
2019-04-11T14:01:40.468Z,31.22
2019-04-11T14:07:38.342Z,32.01
2019-04-11T14:13:38.329Z,30.04
2019-04-11T14:19:41.398Z,30.35
2019-04-11T14:25:38.394Z,31.91
2019-04-11T14:31:38.339Z,31.56
2019-04-11T14:37:38.841Z,30.33
2019-04-11T14:43:38.328Z,29.79
2019-04-11T14:52:39.698Z,29.83
2019-04-11T14:58:39.712Z,30.61
2019-04-11T15:04:43.667Z,31.21
2019-04-11T15:10:39.752Z,31.11
2019-04-11T15:16:40.206Z,29.98
2019-04-11T15:22:39.794Z,30.34
2019-04-11T15:28:43.692Z,30.55
2019-04-11T15:34:39.760Z,29.87
2019-04-11T15:40:39.788Z,30.13
2019-04-11T15:46:39.793Z,30.45
2019-04-11T15:52:39.778Z,29.59
2019-04-11T15:58:42.444Z,30.00
2019-04-11T16:04:39.898Z,29.00
2019-04-11T16:10:41.850Z,29.07
2019-04-11T16:16:41.840Z,29.29
2019-04-11T16:22:39.791Z,30.08
2019-04-11T16:28:39.782Z,29.59
2019-04-11T16:34:48.177Z,29.96
2019-04-11T16:40:39.811Z,30.85
2019-04-11T16:46:39.786Z,30.45
2019-04-11T16:52:39.839Z,31.55
2019-04-11T16:58:39.853Z,30.51
2019-04-11T17:04:39.982Z,30.91
2019-04-11T17:10:39.879Z,30.76
2019-04-11T17:16:39.878Z,31.62
2019-04-11T17:22:39.801Z,31.43
2019-04-11T17:28:39.817Z,32.98
2019-04-11T17:34:39.868Z,33.61
2019-04-11T17:40:40.182Z,34.38
2019-04-11T17:46:39.830Z,34.64
2019-04-11T17:52:39.888Z,35.46
2019-04-11T17:58:40.939Z,36.00
2019-04-11T18:04:44.067Z,36.11
2019-04-11T18:10:39.893Z,36.30
2019-04-11T18:16:39.901Z,36.02
2019-04-11T18:22:40.294Z,36.87
2019-04-11T18:28:39.888Z,37.38
2019-04-11T18:34:39.872Z,37.76
2019-04-11T18:40:40.266Z,39.66
2019-04-11T18:46:39.913Z,40.99
2019-04-11T18:52:39.878Z,41.24
2019-04-11T18:58:39.910Z,42.71
2019-04-11T19:04:42.131Z,43.62
2019-04-11T19:10:39.892Z,44.05
2019-04-11T19:16:39.955Z,44.33
2019-04-11T19:22:39.901Z,45.14
2019-04-11T19:28:39.908Z,45.75
2019-04-11T19:34:39.973Z,46.11
2019-04-11T19:40:39.917Z,47.60
2019-04-11T19:46:40.986Z,47.64
2019-04-11T19:52:45.233Z,48.55
2019-04-11T19:58:39.964Z,49.11
2019-04-11T20:04:39.925Z,49.80
2019-04-11T20:10:39.985Z,50.48
2019-04-11T20:16:42.009Z,51.25
2019-04-11T20:22:40.520Z,51.61
2019-04-11T20:28:39.940Z,52.23
2019-04-11T20:34:40.016Z,52.51
2019-04-11T20:40:40.003Z,53.00
2019-04-11T20:46:39.985Z,53.15
2019-04-11T20:52:40.004Z,53.60
2019-04-11T20:58:40.324Z,54.16
2019-04-11T21:04:39.976Z,54.26
2019-04-11T21:10:39.979Z,54.61
2019-04-11T21:16:39.962Z,55.44
2019-04-11T21:22:39.975Z,55.02
2019-04-11T21:28:39.954Z,55.28
2019-04-11T21:34:40.012Z,54.47
2019-04-11T21:40:41.067Z,53.38
2019-04-11T21:46:41.891Z,52.41
2019-04-11T21:52:43.395Z,53.35
2019-04-11T21:58:39.960Z,53.10
2019-04-11T22:04:39.976Z,51.78
2019-04-11T22:10:40.355Z,50.98
2019-04-11T22:16:44.311Z,50.55
2019-04-11T22:22:40.326Z,50.44
2019-04-11T22:28:40.071Z,50.59
2019-04-11T22:34:40.118Z,49.79
2019-04-11T22:40:40.029Z,50.09
2019-04-11T22:46:39.981Z,49.80
2019-04-11T22:52:42.165Z,50.14
2019-04-11T22:58:40.002Z,49.97
2019-04-11T23:04:40.048Z,50.58
2019-04-11T23:10:40.053Z,52.07
2019-04-11T23:16:41.865Z,52.48
2019-04-11T23:22:42.824Z,52.56
2019-04-11T23:28:40.145Z,52.70
2019-04-11T23:34:40.018Z,53.58
2019-04-11T23:40:40.198Z,53.56
2019-04-11T23:46:40.174Z,54.12
2019-04-11T23:52:40.102Z,54.11
2019-04-11T23:58:40.106Z,54.21
